Terminal Aerodrome Forecast
Issued by NWS

Home | Current Version | Previous Version | Text Only | Print | Product List | Glossary On
Versions: 1 2 3 4 5 6 7 8 9 10 11 12
000
FTUS44 KMOB 212320
TAFBFM
TAF
KBFM 212320Z 2200/2224 17009KT P6SM SKC
     FM220500 11010KT 6SM BR BKN015
     FM220800 11011KT 6SM BR VCSH BKN008
     FM221600 14014G25KT 6SM BR VCTS OVC015CB PROB30 2218/2224
      VRB20G30KT 2SM TSRA BKN012CB=

USA.gov is the U.S. government's official web portal to all federal, state and local government web resources and services.